createdAt,value
2023-05-09T00:00:29.398Z,16.36
2023-05-09T00:01:29.399Z,16.33
2023-05-09T00:02:29.490Z,16.22
2023-05-09T00:03:29.414Z,16.29
2023-05-09T00:04:29.458Z,16.26
2023-05-09T00:05:29.384Z,16.29
2023-05-09T00:06:29.371Z,16.25
2023-05-09T00:07:29.379Z,16.25
2023-05-09T00:08:29.363Z,16.32
2023-05-09T00:09:29.364Z,16.32
2023-05-09T00:10:29.361Z,16.25
2023-05-09T00:11:29.355Z,16.29
2023-05-09T00:12:29.352Z,16.17
2023-05-09T00:13:29.423Z,16.22
2023-05-09T00:14:29.329Z,16.26
2023-05-09T00:15:29.335Z,16.24
2023-05-09T00:16:29.471Z,16.21
2023-05-09T00:17:29.350Z,16.14
2023-05-09T00:18:29.306Z,16.08
2023-05-09T00:19:29.302Z,16.10
2023-05-09T00:20:29.302Z,16.08
2023-05-09T00:21:29.320Z,16.06
2023-05-09T00:22:29.300Z,16.02
2023-05-09T00:23:29.284Z,15.98
2023-05-09T00:24:29.286Z,16.03
2023-05-09T00:25:29.276Z,16.00
2023-05-09T00:26:29.268Z,15.93
2023-05-09T00:27:29.267Z,15.91
2023-05-09T00:28:29.256Z,15.83
2023-05-09T00:29:29.343Z,15.87
2023-05-09T00:30:29.248Z,15.81
2023-05-09T00:31:29.279Z,15.90
2023-05-09T00:32:29.278Z,15.83
2023-05-09T00:33:29.251Z,15.85
2023-05-09T00:34:29.241Z,15.83
2023-05-09T00:35:29.230Z,15.76
2023-05-09T00:36:29.223Z,15.72
2023-05-09T00:37:29.231Z,15.70
2023-05-09T00:38:29.221Z,15.69
2023-05-09T00:39:29.212Z,15.70
2023-05-09T00:40:29.204Z,15.76
2023-05-09T00:41:29.200Z,15.69
2023-05-09T00:42:29.191Z,15.68
2023-05-09T00:43:29.187Z,15.87
2023-05-09T00:44:29.189Z,15.80
2023-05-09T00:45:29.265Z,15.73
2023-05-09T00:46:29.288Z,15.77
2023-05-09T00:47:29.222Z,15.85
2023-05-09T00:48:29.163Z,15.85
2023-05-09T00:49:29.155Z,15.77
2023-05-09T00:50:29.159Z,15.83
2023-05-09T00:51:29.152Z,15.96
2023-05-09T00:52:29.138Z,15.95
2023-05-09T00:53:29.141Z,15.98
2023-05-09T00:54:29.131Z,15.91
2023-05-09T00:55:29.129Z,15.93
2023-05-09T00:56:29.124Z,15.88
2023-05-09T00:57:29.115Z,15.84
2023-05-09T00:58:29.109Z,15.91
2023-05-09T00:59:29.110Z,15.87
2023-05-09T01:00:29.103Z,15.81
2023-05-09T01:01:29.254Z,15.84
2023-05-09T01:02:29.170Z,15.80
2023-05-09T01:03:29.196Z,15.81
2023-05-09T01:04:29.084Z,15.70
2023-05-09T01:05:29.084Z,15.78
2023-05-09T01:06:29.085Z,15.73
2023-05-09T01:07:29.059Z,15.65
2023-05-09T01:08:29.064Z,15.52
2023-05-09T01:09:29.067Z,15.56
2023-05-09T01:10:29.075Z,15.58
2023-05-09T01:11:29.045Z,15.56
2023-05-09T01:12:29.054Z,15.62
2023-05-09T01:13:29.049Z,15.56
2023-05-09T01:14:29.033Z,15.56
2023-05-09T01:15:29.027Z,15.58
2023-05-09T01:16:29.048Z,15.58
2023-05-09T01:17:29.118Z,15.63
2023-05-09T01:18:29.022Z,15.66
2023-05-09T01:19:29.011Z,15.62
2023-05-09T01:20:28.998Z,15.76
2023-05-09T01:21:29.008Z,15.72
2023-05-09T01:22:28.999Z,15.73
2023-05-09T01:23:28.999Z,15.76
2023-05-09T01:24:28.983Z,15.80
2023-05-09T01:25:28.989Z,15.78
2023-05-09T01:26:28.976Z,15.87
2023-05-09T01:27:28.965Z,15.83
2023-05-09T01:28:28.962Z,15.85
2023-05-09T01:29:28.953Z,15.85
2023-05-09T01:30:28.947Z,15.78
2023-05-09T01:31:29.033Z,15.88
2023-05-09T01:32:29.011Z,15.91
2023-05-09T01:33:29.036Z,15.95
2023-05-09T01:34:28.935Z,16.00
2023-05-09T01:35:28.928Z,15.91
2023-05-09T01:36:28.924Z,15.98
2023-05-09T01:37:28.915Z,15.93
2023-05-09T01:38:28.921Z,16.03
2023-05-09T01:39:28.911Z,16.03
2023-05-09T01:40:28.910Z,16.00
2023-05-09T01:41:28.906Z,15.93
2023-05-09T01:42:28.891Z,16.00
2023-05-09T01:43:28.923Z,15.95
2023-05-09T01:44:28.886Z,15.91
2023-05-09T01:45:28.877Z,15.88
2023-05-09T01:46:28.886Z,15.90
2023-05-09T01:47:28.882Z,16.00
2023-05-09T01:48:28.870Z,16.05
2023-05-09T01:49:28.946Z,15.91
2023-05-09T01:50:28.867Z,16.00
2023-05-09T01:51:28.841Z,15.90
2023-05-09T01:52:28.843Z,15.90
2023-05-09T01:53:28.849Z,16.02
2023-05-09T01:54:28.831Z,15.99
2023-05-09T01:55:28.830Z,16.02
2023-05-09T01:56:28.835Z,16.03
2023-05-09T01:57:28.819Z,15.99
2023-05-09T01:58:28.816Z,16.03
2023-05-09T01:59:28.811Z,16.08
2023-05-09T02:00:28.817Z,16.09
2023-05-09T02:01:28.802Z,16.03
2023-05-09T02:02:28.939Z,16.03
2023-05-09T02:03:28.855Z,16.08
2023-05-09T02:04:28.784Z,16.10
2023-05-09T02:05:28.885Z,16.09
2023-05-09T02:06:28.771Z,16.08
2023-05-09T02:07:28.777Z,16.10
2023-05-09T02:08:28.759Z,16.10
2023-05-09T02:09:28.756Z,16.17
2023-05-09T02:10:28.756Z,16.21
2023-05-09T02:11:28.740Z,16.10
2023-05-09T02:12:28.745Z,16.10
2023-05-09T02:13:28.795Z,16.14
2023-05-09T02:14:28.729Z,16.16
2023-05-09T02:15:28.729Z,16.16
2023-05-09T02:16:28.761Z,16.17
2023-05-09T02:17:28.732Z,16.17
2023-05-09T02:18:28.714Z,16.16
2023-05-09T02:19:28.707Z,16.14
2023-05-09T02:20:28.715Z,16.14
2023-05-09T02:21:29.304Z,16.16
2023-05-09T02:22:28.689Z,16.09
2023-05-09T02:23:28.683Z,16.13
2023-05-09T02:24:28.685Z,16.13
2023-05-09T02:25:28.673Z,16.05
2023-05-09T02:26:28.672Z,16.02
2023-05-09T02:27:28.668Z,16.05
2023-05-09T02:28:28.659Z,16.08
2023-05-09T02:29:28.663Z,16.13
2023-05-09T02:30:28.661Z,16.08
2023-05-09T02:31:28.660Z,16.09
2023-05-09T02:32:28.643Z,16.08
2023-05-09T02:33:28.637Z,16.09
2023-05-09T02:34:28.633Z,16.08
2023-05-09T02:35:28.636Z,16.16
2023-05-09T02:36:28.616Z,16.17
2023-05-09T02:37:28.615Z,16.22
2023-05-09T02:38:28.615Z,16.16
2023-05-09T02:39:28.605Z,16.13
2023-05-09T02:40:28.611Z,16.22
2023-05-09T02:41:28.600Z,16.21
2023-05-09T02:42:28.591Z,16.24
2023-05-09T02:43:28.590Z,16.25
2023-05-09T02:44:28.600Z,16.22
2023-05-09T02:45:28.579Z,16.22
2023-05-09T02:46:28.613Z,16.26
2023-05-09T02:47:28.616Z,16.32
2023-05-09T02:48:28.567Z,16.28
2023-05-09T02:49:32.529Z,16.24
2023-05-09T02:50:28.547Z,16.26
2023-05-09T02:51:28.544Z,16.32
2023-05-09T02:52:28.560Z,16.32
2023-05-09T02:53:28.621Z,16.33
2023-05-09T02:54:28.545Z,16.26
2023-05-09T02:55:28.546Z,16.26
2023-05-09T02:56:28.572Z,16.25
2023-05-09T02:57:28.519Z,16.22
2023-05-09T02:58:28.526Z,16.24
2023-05-09T02:59:28.522Z,16.21
2023-05-09T03:00:28.508Z,16.26
2023-05-09T03:01:28.555Z,16.18
2023-05-09T03:02:28.542Z,16.29
2023-05-09T03:03:28.590Z,16.26
2023-05-09T03:04:28.511Z,16.18
2023-05-09T03:05:28.481Z,16.32
2023-05-09T03:06:28.477Z,16.34
2023-05-09T03:07:28.474Z,16.24
2023-05-09T03:08:28.464Z,16.21
2023-05-09T03:09:28.540Z,16.24
2023-05-09T03:10:28.466Z,16.10
2023-05-09T03:11:28.451Z,16.13
2023-05-09T03:12:28.457Z,16.13
2023-05-09T03:13:28.442Z,16.18
2023-05-09T03:14:28.435Z,16.25
2023-05-09T03:15:28.435Z,16.32
2023-05-09T03:16:28.476Z,16.33
2023-05-09T03:17:28.447Z,16.28
2023-05-09T03:18:28.414Z,16.22
2023-05-09T03:19:28.430Z,16.24
2023-05-09T03:20:28.413Z,16.17
2023-05-09T03:21:28.404Z,16.16
2023-05-09T03:22:28.424Z,16.25
2023-05-09T03:23:28.395Z,16.22
2023-05-09T03:24:28.394Z,16.21
2023-05-09T03:25:28.475Z,16.16
2023-05-09T03:26:28.378Z,16.16
2023-05-09T03:27:28.382Z,16.22
2023-05-09T03:28:28.367Z,16.24
2023-05-09T03:29:28.366Z,16.24
2023-05-09T03:30:28.362Z,16.28
2023-05-09T03:31:28.432Z,16.18
2023-05-09T03:32:28.376Z,16.26
2023-05-09T03:33:28.349Z,16.18
2023-05-09T03:34:28.342Z,16.21
2023-05-09T03:35:28.341Z,16.16
2023-05-09T03:36:28.332Z,16.28
2023-05-09T03:37:28.333Z,16.28
2023-05-09T03:38:28.320Z,16.22
2023-05-09T03:39:28.317Z,16.33
2023-05-09T03:40:28.309Z,16.32
2023-05-09T03:41:28.390Z,16.21
2023-05-09T03:42:28.307Z,16.26
2023-05-09T03:43:28.299Z,16.24
2023-05-09T03:44:28.311Z,16.28
2023-05-09T03:45:28.285Z,16.24
2023-05-09T03:46:28.300Z,16.33
2023-05-09T03:47:28.310Z,16.24
2023-05-09T03:48:28.282Z,16.25
2023-05-09T03:49:28.288Z,16.24
2023-05-09T03:50:28.261Z,16.22
2023-05-09T03:51:28.256Z,16.14
2023-05-09T03:52:28.253Z,16.21
2023-05-09T03:53:28.251Z,16.24
2023-05-09T03:54:28.250Z,16.21
2023-05-09T03:55:28.250Z,16.22
2023-05-09T03:56:28.243Z,16.17
2023-05-09T03:57:28.232Z,16.21
2023-05-09T03:58:28.227Z,16.14
2023-05-09T03:59:28.231Z,16.08
2023-05-09T04:00:28.228Z,16.08
2023-05-09T04:01:28.215Z,16.13
2023-05-09T04:02:28.252Z,16.10
2023-05-09T04:03:28.284Z,16.10
2023-05-09T04:04:28.203Z,16.16
2023-05-09T04:05:28.197Z,16.13
2023-05-09T04:06:28.188Z,16.09
2023-05-09T04:07:28.181Z,16.10
2023-05-09T04:08:28.187Z,16.13
2023-05-09T04:09:28.182Z,16.17
2023-05-09T04:10:28.172Z,16.17
2023-05-09T04:11:28.167Z,16.28
2023-05-09T04:12:28.159Z,16.26
2023-05-09T04:13:28.347Z,16.25
2023-05-09T04:14:28.161Z,16.25
2023-05-09T04:15:28.152Z,16.32
2023-05-09T04:16:28.182Z,16.29
2023-05-09T04:17:28.155Z,16.28
2023-05-09T04:18:28.129Z,16.33
2023-05-09T04:19:28.122Z,16.32
2023-05-09T04:20:28.128Z,16.39
2023-05-09T04:21:28.130Z,16.28
2023-05-09T04:22:28.109Z,16.40
2023-05-09T04:23:28.108Z,16.36
2023-05-09T04:24:28.108Z,16.28
2023-05-09T04:25:28.096Z,16.39
2023-05-09T04:26:28.110Z,16.32
2023-05-09T04:27:28.127Z,16.43
2023-05-09T04:28:28.083Z,16.32
2023-05-09T04:29:28.159Z,16.29
2023-05-09T04:30:28.068Z,16.32
2023-05-09T04:31:28.137Z,16.34
2023-05-09T04:32:28.077Z,16.39
2023-05-09T04:33:28.053Z,16.29
2023-05-09T04:34:28.081Z,16.39
2023-05-09T04:35:28.049Z,16.46
2023-05-09T04:36:28.044Z,16.42
2023-05-09T04:37:28.036Z,16.39
2023-05-09T04:38:28.037Z,16.43
2023-05-09T04:39:28.027Z,16.40
2023-05-09T04:40:28.033Z,16.39
2023-05-09T04:41:28.022Z,16.44
2023-05-09T04:42:28.039Z,16.57
2023-05-09T04:43:28.019Z,16.40
2023-05-09T04:44:27.997Z,16.54
2023-05-09T04:45:28.086Z,16.52
2023-05-09T04:46:28.024Z,16.59
2023-05-09T04:47:28.023Z,16.55
2023-05-09T04:48:27.984Z,16.55
2023-05-09T04:49:27.982Z,16.58
2023-05-09T04:50:27.979Z,16.54
2023-05-09T04:51:27.970Z,16.59
2023-05-09T04:52:27.965Z,16.52
2023-05-09T04:53:27.962Z,16.55
2023-05-09T04:54:27.957Z,16.62
2023-05-09T04:55:27.954Z,16.55
2023-05-09T04:56:27.949Z,16.54
2023-05-09T04:57:27.939Z,16.57
2023-05-09T04:58:27.939Z,16.64
2023-05-09T04:59:27.950Z,16.59
2023-05-09T05:00:27.927Z,16.58
2023-05-09T05:01:28.043Z,16.59
2023-05-09T05:02:27.979Z,16.65
2023-05-09T05:03:27.912Z,16.59
2023-05-09T05:04:27.946Z,16.61
2023-05-09T05:05:28.077Z,16.62
2023-05-09T05:06:27.894Z,16.67
2023-05-09T05:07:27.894Z,16.65
2023-05-09T05:08:27.890Z,16.64
2023-05-09T05:09:27.889Z,16.61
2023-05-09T05:10:27.897Z,16.70
2023-05-09T05:11:27.879Z,16.61
2023-05-09T05:12:27.871Z,16.72
2023-05-09T05:13:27.966Z,16.65
2023-05-09T05:14:27.859Z,16.67
2023-05-09T05:15:27.853Z,16.64
2023-05-09T05:16:27.900Z,16.64
2023-05-09T05:17:27.955Z,16.59
2023-05-09T05:18:27.847Z,16.59
2023-05-09T05:19:27.861Z,16.62
2023-05-09T05:20:27.837Z,16.72
2023-05-09T05:21:27.824Z,16.74
2023-05-09T05:22:27.830Z,16.73
2023-05-09T05:23:27.819Z,16.83
2023-05-09T05:24:27.814Z,16.76
2023-05-09T05:25:27.825Z,16.73
2023-05-09T05:26:27.814Z,16.76
2023-05-09T05:27:27.811Z,16.77
2023-05-09T05:28:27.801Z,16.79
2023-05-09T05:29:27.807Z,16.79
2023-05-09T05:30:27.785Z,16.73
2023-05-09T05:31:27.816Z,16.72
2023-05-09T05:32:27.793Z,16.77
2023-05-09T05:33:27.864Z,16.73
2023-05-09T05:34:27.767Z,16.70
2023-05-09T05:35:27.754Z,16.69
2023-05-09T05:36:28.808Z,16.67
2023-05-09T05:37:27.759Z,16.80
2023-05-09T05:38:27.749Z,16.79
2023-05-09T05:39:27.744Z,16.83
2023-05-09T05:40:27.735Z,16.76
2023-05-09T05:41:27.753Z,16.84
2023-05-09T05:42:27.729Z,16.90
2023-05-09T05:43:27.716Z,16.83
2023-05-09T05:44:27.728Z,16.80
2023-05-09T05:45:27.722Z,16.84
2023-05-09T05:46:27.702Z,16.84
2023-05-09T05:47:27.725Z,16.83
2023-05-09T05:48:27.708Z,16.88
2023-05-09T05:49:27.793Z,16.74
2023-05-09T05:50:27.701Z,16.84
2023-05-09T05:51:27.685Z,16.76
2023-05-09T05:52:27.688Z,16.87
2023-05-09T05:53:27.672Z,16.92
2023-05-09T05:54:27.673Z,16.92
2023-05-09T05:55:27.666Z,16.97
2023-05-09T05:56:27.659Z,17.01
2023-05-09T05:57:27.649Z,16.99
2023-05-09T05:58:27.669Z,17.12
2023-05-09T05:59:27.646Z,17.10
2023-05-09T06:00:27.655Z,17.13
2023-05-09T06:01:27.651Z,17.14
2023-05-09T06:02:27.672Z,17.17
2023-05-09T06:03:27.703Z,17.25
2023-05-09T06:04:27.639Z,17.30
2023-05-09T06:05:27.698Z,17.31
2023-05-09T06:06:27.608Z,17.37
2023-05-09T06:07:27.609Z,17.28
2023-05-09T06:08:27.610Z,17.30
2023-05-09T06:09:27.609Z,17.37
2023-05-09T06:10:27.598Z,17.39
2023-05-09T06:11:27.596Z,17.39
2023-05-09T06:12:28.183Z,17.38
2023-05-09T06:13:27.649Z,17.39
2023-05-09T06:14:27.585Z,17.39
2023-05-09T06:15:27.572Z,17.43
2023-05-09T06:16:27.661Z,17.39
2023-05-09T06:17:27.616Z,17.38
2023-05-09T06:18:27.558Z,17.43
2023-05-09T06:19:27.558Z,17.38
2023-05-09T06:20:27.641Z,17.39
2023-05-09T06:21:27.653Z,17.49
2023-05-09T06:22:27.543Z,17.49
2023-05-09T06:23:27.537Z,17.41
2023-05-09T06:24:35.145Z,17.43
2023-05-09T06:25:27.522Z,17.46
2023-05-09T06:26:27.539Z,17.49
2023-05-09T06:27:27.536Z,17.49
2023-05-09T06:28:27.519Z,17.50
2023-05-09T06:29:27.510Z,17.57
2023-05-09T06:30:27.515Z,17.62
2023-05-09T06:31:27.521Z,17.63
2023-05-09T06:32:27.521Z,17.68
2023-05-09T06:33:27.516Z,17.57
2023-05-09T06:34:27.492Z,17.65
2023-05-09T06:35:27.485Z,17.63
2023-05-09T06:36:27.484Z,17.57
2023-05-09T06:37:27.606Z,17.57
2023-05-09T06:38:27.473Z,17.69
2023-05-09T06:39:27.486Z,17.66
2023-05-09T06:40:27.547Z,17.69
2023-05-09T06:41:27.466Z,17.65
2023-05-09T06:42:27.459Z,17.72
2023-05-09T06:43:27.453Z,17.65
2023-05-09T06:44:27.453Z,17.68
2023-05-09T06:45:27.523Z,17.71
2023-05-09T06:46:27.488Z,17.57
2023-05-09T06:47:27.464Z,17.68
2023-05-09T06:48:27.428Z,17.68
2023-05-09T06:49:27.430Z,17.68
2023-05-09T06:50:27.473Z,17.57
2023-05-09T06:51:27.420Z,17.68
2023-05-09T06:52:27.424Z,17.63
2023-05-09T06:53:27.509Z,17.66
2023-05-09T06:54:27.475Z,17.57
2023-05-09T06:55:27.399Z,17.65
2023-05-09T06:56:27.391Z,17.71
2023-05-09T06:57:27.396Z,17.68
2023-05-09T06:58:27.386Z,17.69
2023-05-09T06:59:27.391Z,17.86
2023-05-09T07:00:27.381Z,17.87
2023-05-09T07:01:27.420Z,17.84
2023-05-09T07:02:27.467Z,17.86
2023-05-09T07:03:27.369Z,17.81
2023-05-09T07:04:27.368Z,17.86
2023-05-09T07:05:27.362Z,17.83
2023-05-09T07:06:27.358Z,17.88
2023-05-09T07:07:27.353Z,17.84
2023-05-09T07:08:27.340Z,17.86
2023-05-09T07:09:27.430Z,17.86
2023-05-09T07:10:27.399Z,17.86
2023-05-09T07:11:27.330Z,17.90
2023-05-09T07:12:27.326Z,18.01
2023-05-09T07:13:27.333Z,18.06
2023-05-09T07:14:27.334Z,18.08
2023-05-09T07:15:39.935Z,18.06
2023-05-09T07:16:27.360Z,18.13
2023-05-09T07:17:27.369Z,18.12
2023-05-09T07:18:27.310Z,18.26
2023-05-09T07:19:27.301Z,18.21
2023-05-09T07:20:27.285Z,18.06
2023-05-09T07:21:27.294Z,18.26
2023-05-09T07:22:28.237Z,18.28
2023-05-09T07:23:27.283Z,18.30
2023-05-09T07:24:27.272Z,18.41
2023-05-09T07:25:27.332Z,18.43
2023-05-09T07:26:27.268Z,18.38
2023-05-09T07:27:27.266Z,18.46
2023-05-09T07:28:27.255Z,18.46
2023-05-09T07:29:27.250Z,18.51
2023-05-09T07:30:27.305Z,18.67
2023-05-09T07:31:27.302Z,18.66
2023-05-09T07:32:27.258Z,18.68
2023-05-09T07:33:27.239Z,18.66
2023-05-09T07:34:27.228Z,18.71
2023-05-09T07:35:27.226Z,18.76
2023-05-09T07:36:27.241Z,18.88
2023-05-09T07:37:27.242Z,18.81
2023-05-09T07:38:27.223Z,18.85
2023-05-09T07:39:27.230Z,18.81
2023-05-09T07:40:27.207Z,18.88
2023-05-09T07:41:27.309Z,18.91
2023-05-09T07:42:27.195Z,18.70
2023-05-09T07:43:27.196Z,18.76
2023-05-09T07:44:27.206Z,18.76
2023-05-09T07:45:27.204Z,18.70
2023-05-09T07:46:27.258Z,18.70
2023-05-09T07:47:27.225Z,18.67
2023-05-09T07:48:27.172Z,18.66
2023-05-09T07:49:27.172Z,18.75
2023-05-09T07:50:27.163Z,18.75
2023-05-09T07:51:27.160Z,18.67
2023-05-09T07:52:27.159Z,18.75
2023-05-09T07:53:27.150Z,18.68
2023-05-09T07:54:27.154Z,18.67
2023-05-09T07:55:27.155Z,18.85
2023-05-09T07:56:27.192Z,18.85
2023-05-09T07:57:27.341Z,18.82
2023-05-09T07:58:27.138Z,18.89
2023-05-09T07:59:27.136Z,18.86
2023-05-09T08:00:27.128Z,19.08
2023-05-09T08:01:27.122Z,19.05
2023-05-09T08:02:27.225Z,19.04
2023-05-09T08:03:27.194Z,19.05
2023-05-09T08:04:27.151Z,19.13
2023-05-09T08:05:27.107Z,19.17
2023-05-09T08:06:27.103Z,19.37
2023-05-09T08:07:27.091Z,19.35
2023-05-09T08:08:27.096Z,19.42
2023-05-09T08:09:27.091Z,19.44
2023-05-09T08:10:27.089Z,19.49
2023-05-09T08:11:27.081Z,19.44
2023-05-09T08:12:27.080Z,19.56
2023-05-09T08:13:27.215Z,19.54
2023-05-09T08:14:27.086Z,19.68
2023-05-09T08:15:27.073Z,19.64
2023-05-09T08:16:27.148Z,19.64
2023-05-09T08:17:27.098Z,19.57
2023-05-09T08:18:27.055Z,19.60
2023-05-09T08:19:27.081Z,19.52
2023-05-09T08:20:27.053Z,19.54
2023-05-09T08:21:27.046Z,19.49
2023-05-09T08:22:27.046Z,19.39
2023-05-09T08:23:27.091Z,19.34
2023-05-09T08:24:27.048Z,19.47
2023-05-09T08:25:27.035Z,19.35
2023-05-09T08:26:27.037Z,19.34
2023-05-09T08:27:27.026Z,19.23
2023-05-09T08:28:27.029Z,19.32
2023-05-09T08:29:27.111Z,19.41
2023-05-09T08:30:27.018Z,19.49
2023-05-09T08:31:27.078Z,19.56
2023-05-09T08:32:27.033Z,19.67
2023-05-09T08:33:27.013Z,19.78
2023-05-09T08:34:26.997Z,19.89
2023-05-09T08:35:27.006Z,19.93
2023-05-09T08:36:26.989Z,19.87
2023-05-09T08:37:26.987Z,19.87
2023-05-09T08:38:26.997Z,19.94
2023-05-09T08:39:26.983Z,19.97
2023-05-09T08:40:26.987Z,20.11
2023-05-09T08:41:26.973Z,19.99
2023-05-09T08:42:26.975Z,19.93
2023-05-09T08:43:26.970Z,19.99
2023-05-09T08:44:26.971Z,19.96
2023-05-09T08:45:27.042Z,19.99
2023-05-09T08:46:26.999Z,19.96
2023-05-09T08:47:26.968Z,19.78
2023-05-09T08:48:26.954Z,19.82
2023-05-09T08:49:26.945Z,19.75
2023-05-09T08:50:26.942Z,19.67
2023-05-09T08:51:26.942Z,19.71
2023-05-09T08:52:26.938Z,19.70
2023-05-09T08:53:26.929Z,19.72
2023-05-09T08:54:26.929Z,19.68
2023-05-09T08:55:26.922Z,19.75
2023-05-09T08:56:26.917Z,19.70
2023-05-09T08:57:26.924Z,19.72
2023-05-09T08:58:26.922Z,19.84
2023-05-09T08:59:26.911Z,19.79
2023-05-09T09:00:26.904Z,19.77
2023-05-09T09:01:27.099Z,19.79
2023-05-09T09:02:26.908Z,19.71
2023-05-09T09:03:26.916Z,19.75
2023-05-09T09:04:26.957Z,19.78
2023-05-09T09:05:40.808Z,19.77
2023-05-09T09:06:26.886Z,19.75
2023-05-09T09:07:27.205Z,19.93
2023-05-09T09:08:26.877Z,20.02
2023-05-09T09:09:26.881Z,20.08
2023-05-09T09:10:26.875Z,20.15
2023-05-09T09:11:26.870Z,20.07
2023-05-09T09:12:26.859Z,20.05
2023-05-09T09:13:26.879Z,20.15
2023-05-09T09:14:26.860Z,20.15
2023-05-09T09:15:26.857Z,20.22
2023-05-09T09:16:26.909Z,20.29
2023-05-09T09:17:26.998Z,20.25
2023-05-09T09:18:26.838Z,20.32
2023-05-09T09:19:26.841Z,20.26
2023-05-09T09:20:26.838Z,20.27
2023-05-09T09:21:26.836Z,20.33
2023-05-09T09:22:26.828Z,20.33
2023-05-09T09:23:26.822Z,20.23
2023-05-09T09:24:26.820Z,20.30
2023-05-09T09:25:26.814Z,20.26
2023-05-09T09:26:26.813Z,20.27
2023-05-09T09:27:26.813Z,20.36
2023-05-09T09:28:26.818Z,20.32
2023-05-09T09:29:26.808Z,20.41
2023-05-09T09:30:26.805Z,20.36
2023-05-09T09:31:26.814Z,20.46
2023-05-09T09:32:26.802Z,20.41
2023-05-09T09:33:26.890Z,20.39
2023-05-09T09:34:26.807Z,20.42
2023-05-09T09:35:26.796Z,20.49
2023-05-09T09:36:26.789Z,20.48
2023-05-09T09:37:26.809Z,20.55
2023-05-09T09:38:26.794Z,20.63
2023-05-09T09:39:26.784Z,20.67
2023-05-09T09:40:26.777Z,20.73
2023-05-09T09:41:26.770Z,20.83
2023-05-09T09:42:26.806Z,20.80
2023-05-09T09:43:26.762Z,20.83
2023-05-09T09:44:26.762Z,20.92
2023-05-09T09:45:26.762Z,20.77
2023-05-09T09:46:26.789Z,20.89
2023-05-09T09:47:26.793Z,20.82
2023-05-09T09:48:26.771Z,20.80
2023-05-09T09:49:26.835Z,20.79
2023-05-09T09:50:26.766Z,20.95
2023-05-09T09:51:26.736Z,21.01
2023-05-09T09:52:26.747Z,21.10
2023-05-09T09:53:26.735Z,21.25
2023-05-09T09:54:26.747Z,21.37
2023-05-09T09:55:26.732Z,21.44
2023-05-09T09:56:26.741Z,21.74
2023-05-09T09:57:26.750Z,21.84
2023-05-09T09:58:26.737Z,21.88
2023-05-09T09:59:26.938Z,21.93
2023-05-09T10:00:26.732Z,21.91
2023-05-09T10:01:26.844Z,21.88
2023-05-09T10:02:26.780Z,21.90
2023-05-09T10:03:26.731Z,21.96
2023-05-09T10:04:26.714Z,22.09
2023-05-09T10:05:26.910Z,22.11
2023-05-09T10:06:26.710Z,22.11
2023-05-09T10:07:26.720Z,22.13
2023-05-09T10:08:26.711Z,22.03
2023-05-09T10:09:26.706Z,22.09
2023-05-09T10:10:26.719Z,22.28
2023-05-09T10:11:26.712Z,22.46
2023-05-09T10:12:26.704Z,22.61
2023-05-09T10:13:26.803Z,22.56
2023-05-09T10:14:26.697Z,22.70
2023-05-09T10:15:27.614Z,22.64
2023-05-09T10:16:39.916Z,22.77
2023-05-09T10:17:26.853Z,22.85
2023-05-09T10:18:27.062Z,23.03
2023-05-09T10:19:26.703Z,23.13
2023-05-09T10:20:26.706Z,23.36
2023-05-09T10:21:26.790Z,23.41
2023-05-09T10:22:26.709Z,23.46
2023-05-09T10:23:26.702Z,23.25
2023-05-09T10:24:26.713Z,23.08
2023-05-09T10:25:26.706Z,22.89
2023-05-09T10:26:26.709Z,22.95
2023-05-09T10:27:26.699Z,22.76
2023-05-09T10:28:26.758Z,22.67
2023-05-09T10:29:26.703Z,22.41
2023-05-09T10:30:26.701Z,22.25
2023-05-09T10:31:26.727Z,22.43
2023-05-09T10:32:26.770Z,22.22
2023-05-09T10:33:26.704Z,22.28
2023-05-09T10:34:26.705Z,22.49
2023-05-09T10:35:26.708Z,22.41
2023-05-09T10:36:26.707Z,22.33
2023-05-09T10:37:26.791Z,22.36
2023-05-09T10:38:26.708Z,22.31
2023-05-09T10:39:26.700Z,22.27
2023-05-09T10:40:26.701Z,22.28
2023-05-09T10:41:26.698Z,22.25
2023-05-09T10:42:26.717Z,22.33
2023-05-09T10:43:26.697Z,22.25
2023-05-09T10:44:26.708Z,22.28
2023-05-09T10:45:26.698Z,22.27
2023-05-09T10:46:26.716Z,22.33
2023-05-09T10:47:26.739Z,22.36
2023-05-09T10:48:26.707Z,22.48
2023-05-09T10:49:26.694Z,22.52
2023-05-09T10:50:26.700Z,22.53
2023-05-09T10:51:26.688Z,22.67
2023-05-09T10:52:26.694Z,22.71
2023-05-09T10:53:26.773Z,22.88
2023-05-09T10:54:27.607Z,22.88
2023-05-09T10:55:26.688Z,22.93
2023-05-09T10:56:26.691Z,23.10
2023-05-09T10:57:26.700Z,23.08
2023-05-09T10:58:26.683Z,23.08
2023-05-09T10:59:26.686Z,23.17
2023-05-09T11:00:26.690Z,23.13
2023-05-09T11:01:26.779Z,23.10
2023-05-09T11:02:26.699Z,22.92
2023-05-09T11:03:26.796Z,22.88
2023-05-09T11:04:26.688Z,22.95
2023-05-09T11:05:26.691Z,22.92
2023-05-09T11:06:26.685Z,22.85
2023-05-09T11:07:26.692Z,22.78
2023-05-09T11:08:26.758Z,22.70
2023-05-09T11:09:26.772Z,22.62
2023-05-09T11:10:26.682Z,22.71
2023-05-09T11:11:26.680Z,22.51
2023-05-09T11:12:26.687Z,22.61
2023-05-09T11:13:26.693Z,22.64
2023-05-09T11:14:26.683Z,22.58
2023-05-09T11:15:26.688Z,22.66
2023-05-09T11:16:26.747Z,22.59
2023-05-09T11:17:26.705Z,22.70
2023-05-09T11:18:26.687Z,22.68
2023-05-09T11:19:26.684Z,22.70
2023-05-09T11:20:26.676Z,22.58
2023-05-09T11:21:26.674Z,22.52
2023-05-09T11:22:26.674Z,22.70
2023-05-09T11:23:26.677Z,22.55
2023-05-09T11:24:26.676Z,22.53
2023-05-09T11:25:26.757Z,22.55
2023-05-09T11:26:26.676Z,22.52
2023-05-09T11:27:26.674Z,22.53
2023-05-09T11:28:26.676Z,22.49
2023-05-09T11:29:26.668Z,22.36
2023-05-09T11:30:26.665Z,22.43
2023-05-09T11:31:26.696Z,22.38
2023-05-09T11:32:26.688Z,22.48
2023-05-09T11:33:26.668Z,22.52
2023-05-09T11:34:26.660Z,22.43
2023-05-09T11:35:26.668Z,22.36
2023-05-09T11:36:26.659Z,22.48
2023-05-09T11:37:26.657Z,22.49
2023-05-09T11:38:26.653Z,22.51
2023-05-09T11:39:26.651Z,22.55
2023-05-09T11:40:26.676Z,22.76
2023-05-09T11:41:26.731Z,22.83
2023-05-09T11:42:26.643Z,22.83
2023-05-09T11:43:26.648Z,22.73
2023-05-09T11:44:26.645Z,22.71
2023-05-09T11:45:26.645Z,22.77
2023-05-09T11:46:26.766Z,22.78
2023-05-09T11:47:26.685Z,22.83
2023-05-09T11:48:26.678Z,22.85
2023-05-09T11:49:26.636Z,22.78
2023-05-09T11:50:26.669Z,22.88
2023-05-09T11:51:26.644Z,22.86
2023-05-09T11:52:26.640Z,22.85
2023-05-09T11:53:26.648Z,22.91
2023-05-09T11:54:26.648Z,22.96
2023-05-09T11:55:26.633Z,23.03
2023-05-09T11:56:26.632Z,22.86
2023-05-09T11:57:26.718Z,22.92
2023-05-09T11:58:26.652Z,22.78
2023-05-09T11:59:26.628Z,22.81
2023-05-09T12:00:26.781Z,22.80
2023-05-09T12:01:26.623Z,22.83
2023-05-09T12:02:26.693Z,22.74
2023-05-09T12:03:26.897Z,22.77
2023-05-09T12:04:26.693Z,22.77
2023-05-09T12:05:26.616Z,22.76
2023-05-09T12:06:26.611Z,22.77
2023-05-09T12:07:26.639Z,22.74
2023-05-09T12:08:26.609Z,22.77
2023-05-09T12:09:26.623Z,22.70
2023-05-09T12:10:26.599Z,22.67
2023-05-09T12:11:26.601Z,22.80
2023-05-09T12:12:26.612Z,22.78
2023-05-09T12:13:26.829Z,22.73
2023-05-09T12:14:26.612Z,22.76
2023-05-09T12:15:26.608Z,22.62
2023-05-09T12:16:26.748Z,22.59
2023-05-09T12:17:26.597Z,22.61
2023-05-09T12:18:26.600Z,22.77
2023-05-09T12:19:26.596Z,22.76
2023-05-09T12:20:26.583Z,22.76
2023-05-09T12:21:26.587Z,22.67
2023-05-09T12:22:26.613Z,22.55
2023-05-09T12:23:26.575Z,22.55
2023-05-09T12:24:26.577Z,22.59
2023-05-09T12:25:26.578Z,22.58
2023-05-09T12:26:26.577Z,22.62
2023-05-09T12:27:26.595Z,22.71
2023-05-09T12:28:26.574Z,22.74
2023-05-09T12:29:26.650Z,22.83
2023-05-09T12:30:26.571Z,22.70
2023-05-09T12:31:26.593Z,22.64
2023-05-09T12:32:26.576Z,22.67
2023-05-09T12:33:26.572Z,22.76
2023-05-09T12:34:26.562Z,22.66
2023-05-09T12:35:26.560Z,22.62
2023-05-09T12:36:26.553Z,22.58
2023-05-09T12:37:26.561Z,22.64
2023-05-09T12:38:26.553Z,22.55
2023-05-09T12:39:26.551Z,22.53
2023-05-09T12:40:26.549Z,22.55
2023-05-09T12:42:26.556Z,22.55
2023-05-09T12:43:26.549Z,22.55
2023-05-09T12:44:26.547Z,22.44
2023-05-09T12:45:26.625Z,22.52
2023-05-09T12:46:26.576Z,22.59
2023-05-09T12:47:26.576Z,22.61
2023-05-09T12:48:26.544Z,22.73
2023-05-09T12:49:26.536Z,22.81
2023-05-09T12:50:26.534Z,22.77
2023-05-09T12:51:26.539Z,22.66
2023-05-09T12:52:26.525Z,22.70
2023-05-09T12:53:26.534Z,22.73